Time;durP1;ratioP1;P1;durP2;ratioP2;P2;SDS_P1;SDS_P2;PMS_P1;PMS_P2;Temp;Humidity;BMP_temperature;BMP_pressure;BME280_temperature;BME280_humidity;BME280_pressure;Samples;Min_cycle;Max_cycle;Signal;HPM_P1;HPM_P2
2022/10/08 00:01:43;;;;;;;12.90;9.77;;;10.30;1.00;;;;;;4987059;28;20930;-85
2022/10/08 00:04:11;;;;;;;14.40;9.70;;;10.30;1.00;;;;;;4993570;28;21271;-85
2022/10/08 00:06:38;;;;;;;15.17;10.87;;;10.20;1.00;;;;;;4992351;28;20467;-85
2022/10/08 00:09:07;;;;;;;15.37;9.77;;;10.20;1.00;;;;;;4992279;28;20952;-84
2022/10/08 00:11:36;;;;;;;13.70;10.53;;;10.20;1.00;;;;;;4993605;28;20502;-84
2022/10/08 00:14:04;;;;;;;14.23;10.73;;;10.20;1.00;;;;;;4992097;28;20471;-84
2022/10/08 00:16:35;;;;;;;11.63;9.63;;;10.30;1.00;;;;;;4989080;28;20463;-84
2022/10/08 00:19:04;;;;;;;17.80;10.20;;;10.20;1.00;;;;;;4991029;28;20468;-85
2022/10/08 00:21:33;;;;;;;12.90;10.07;;;10.30;1.00;;;;;;4992872;28;20943;-84
2022/10/08 00:24:01;;;;;;;14.70;11.10;;;10.20;1.00;;;;;;4990856;28;20457;-84
2022/10/08 00:26:30;;;;;;;16.10;10.30;;;10.20;1.00;;;;;;4992165;28;20426;-83
2022/10/08 00:28:58;;;;;;;17.90;11.63;;;10.20;1.00;;;;;;4988756;28;21336;-84
2022/10/08 00:31:28;;;;;;;13.70;9.70;;;10.20;1.00;;;;;;4990777;28;20472;-83
2022/10/08 00:33:57;;;;;;;14.80;10.87;;;10.20;1.00;;;;;;4996167;28;20581;-85
2022/10/08 00:36:26;;;;;;;19.27;11.57;;;10.20;1.00;;;;;;4993139;28;20462;-84
2022/10/08 00:38:58;;;;;;;13.23;10.93;;;10.20;1.00;;;;;;4993846;28;20475;-85
2022/10/08 00:41:26;;;;;;;16.13;10.90;;;10.10;1.00;;;;;;4990117;28;20560;-84
2022/10/08 00:43:55;;;;;;;15.20;10.10;;;10.10;1.00;;;;;;4990234;28;20484;-84
2022/10/08 00:46:26;;;;;;;12.40;9.77;;;10.00;1.00;;;;;;4993364;28;20482;-84
2022/10/08 00:48:59;;;;;;;13.27;10.50;;;10.00;1.00;;;;;;4991390;28;20455;-83
2022/10/08 00:51:27;;;;;;;14.57;11.17;;;10.00;1.00;;;;;;4994464;28;20570;-84
2022/10/08 00:53:54;;;;;;;17.33;12.53;;;10.00;1.00;;;;;;4992501;28;20887;-84
2022/10/08 00:56:23;;;;;;;14.83;11.07;;;10.00;1.00;;;;;;4996482;28;20459;-84
2022/10/08 00:58:51;;;;;;;14.30;10.13;;;10.10;1.00;;;;;;4974949;28;20534;-84
2022/10/08 01:01:18;;;;;;;12.17;9.57;;;10.10;1.00;;;;;;4982753;28;20487;-85
2022/10/08 01:03:45;;;;;;;12.43;9.60;;;10.20;1.00;;;;;;4988776;28;20431;-82
2022/10/08 01:06:23;;;;;;;12.27;9.00;;;10.20;1.00;;;;;;4996290;28;20458;-82
2022/10/08 01:08:57;;;;;;;14.10;11.20;;;10.30;1.00;;;;;;4993606;28;20471;-82
2022/10/08 01:11:45;;;;;;;12.90;9.87;;;10.30;1.00;;;;;;4991845;28;21448;-81
2022/10/08 01:14:48;;;;;;;13.30;10.00;;;10.40;1.00;;;;;;4992481;28;20479;-82
2022/10/08 01:17:22;;;;;;;22.73;10.83;;;10.40;1.00;;;;;;4985770;28;21144;-81
2022/10/08 01:20:12;;;;;;;12.60;10.00;;;10.50;1.00;;;;;;4989571;28;20549;-82
2022/10/08 01:22:59;;;;;;;13.50;11.10;;;10.40;1.00;;;;;;4990360;28;20506;-84
2022/10/08 01:25:36;;;;;;;13.37;10.00;;;10.40;1.00;;;;;;4992872;28;21345;-84
2022/10/08 01:28:11;;;;;;;13.10;10.03;;;10.40;1.00;;;;;;4992110;28;20470;-84
2022/10/08 01:30:44;;;;;;;12.17;9.77;;;10.40;1.00;;;;;;4992155;28;20988;-85
2022/10/08 01:33:15;;;;;;;16.70;9.53;;;10.30;1.00;;;;;;4994421;28;20482;-85
2022/10/08 01:35:49;;;;;;;9.90;7.70;;;10.40;1.00;;;;;;4991876;28;21310;-85
2022/10/08 01:38:19;;;;;;;12.30;9.70;;;10.40;1.00;;;;;;4996145;28;20542;-85
2022/10/08 01:40:48;;;;;;;12.33;9.23;;;10.40;1.00;;;;;;4987204;28;20459;-83
2022/10/08 01:43:20;;;;;;;12.50;9.00;;;10.50;1.00;;;;;;4993212;28;20541;-82
2022/10/08 01:45:53;;;;;;;14.33;10.10;;;10.50;1.00;;;;;;4993567;28;26767;-84
2022/10/08 01:48:26;;;;;;;13.47;10.07;;;10.50;1.00;;;;;;4990841;28;20475;-82
2022/10/08 01:50:58;;;;;;;14.10;9.73;;;10.50;1.00;;;;;;4990930;28;20558;-84
2022/10/08 01:53:32;;;;;;;13.67;9.27;;;10.40;1.00;;;;;;4990145;28;20581;-84
2022/10/08 01:56:05;;;;;;;11.80;8.90;;;10.50;1.00;;;;;;4988177;28;20487;-83
2022/10/08 01:58:39;;;;;;;12.13;9.40;;;10.60;1.00;;;;;;4993014;28;21276;-85
2022/10/08 02:01:12;;;;;;;15.30;9.53;;;10.70;1.00;;;;;;4989808;28;20416;-84
2022/10/08 02:04:31;;;;;;;11.23;9.37;;;10.80;1.00;;;;;;4990848;28;20496;-85
2022/10/08 02:06:28;;;;;;;11.10;9.33;;;10.80;1.00;;;;;;4991668;28;20537;-83
2022/10/08 02:08:55;;;;;;;12.63;8.67;;;10.70;1.00;;;;;;4989752;28;20545;-85
2022/10/08 02:11:22;;;;;;;12.97;8.37;;;10.70;1.00;;;;;;4991659;28;20521;-84
2022/10/08 02:13:50;;;;;;;12.37;7.63;;;10.60;1.00;;;;;;4994688;28;20562;-83
2022/10/08 02:16:26;;;;;;;14.30;9.23;;;10.60;1.00;;;;;;4997875;28;20582;-84
2022/10/08 02:19:00;;;;;;;14.10;9.53;;;10.50;1.00;;;;;;4996013;28;20734;-83
2022/10/08 02:21:28;;;;;;;11.30;9.10;;;10.60;1.00;;;;;;4997724;28;20922;-84
2022/10/08 02:24:04;;;;;;;14.47;9.47;;;10.60;1.00;;;;;;4998314;28;20478;-84
2022/10/08 02:26:34;;;;;;;12.57;9.20;;;10.60;1.00;;;;;;4999085;28;20455;-83
2022/10/08 02:29:06;;;;;;;13.10;9.00;;;10.60;1.00;;;;;;4995566;28;20423;-82
2022/10/08 02:31:40;;;;;;;14.13;9.53;;;10.60;1.00;;;;;;4989672;28;20466;-83
2022/10/08 02:34:12;;;;;;;12.80;8.47;;;10.60;1.00;;;;;;4997049;28;20495;-83
2022/10/08 02:36:44;;;;;;;14.97;9.20;;;10.60;1.00;;;;;;4989851;28;20569;-83
2022/10/08 02:39:13;;;;;;;11.00;8.83;;;10.60;1.00;;;;;;4992767;28;20487;-83
2022/10/08 02:41:44;;;;;;;12.93;8.87;;;10.70;1.00;;;;;;4993139;28;20843;-83
2022/10/08 02:44:19;;;;;;;14.17;10.00;;;10.70;1.00;;;;;;5002931;28;21249;-82
2022/10/08 02:46:52;;;;;;;12.20;9.27;;;10.70;1.00;;;;;;4986424;28;20472;-84
2022/10/08 02:49:23;;;;;;;12.40;9.13;;;10.80;1.00;;;;;;4995856;28;20981;-87
2022/10/08 02:51:53;;;;;;;12.13;10.30;;;10.80;1.00;;;;;;5003075;28;20461;-82
2022/10/08 02:54:24;;;;;;;12.00;8.83;;;10.80;1.00;;;;;;5002452;28;20495;-83
2022/10/08 02:57:00;;;;;;;12.27;9.77;;;10.90;1.00;;;;;;5001920;28;20458;-83
2022/10/08 02:59:33;;;;;;;14.07;9.87;;;10.90;1.00;;;;;;5007593;28;20419;-84
2022/10/08 03:02:04;;;;;;;12.20;9.30;;;10.90;1.00;;;;;;5007024;28;21318;-84
2022/10/08 03:04:35;;;;;;;12.77;9.63;;;10.90;1.00;;;;;;5002675;28;20509;-84
2022/10/08 03:07:04;;;;;;;14.20;10.00;;;10.80;1.00;;;;;;4996913;28;20530;-83
2022/10/08 03:09:42;;;;;;;11.67;9.60;;;10.80;1.00;;;;;;4992391;28;20453;-83
2022/10/08 03:12:12;;;;;;;12.20;9.73;;;10.90;1.00;;;;;;5003870;28;20404;-84
2022/10/08 03:14:55;;;;;;;15.17;9.30;;;11.00;1.00;;;;;;5005889;28;20509;-82
2022/10/08 03:17:41;;;;;;;17.40;10.30;;;10.90;1.00;;;;;;5004352;28;20506;-83
2022/10/08 03:20:14;;;;;;;14.80;10.13;;;10.90;1.00;;;;;;5005470;28;20451;-85
2022/10/08 03:22:43;;;;;;;16.00;9.93;;;10.80;1.00;;;;;;5001463;28;20423;-85
2022/10/08 03:25:14;;;;;;;14.37;9.60;;;10.80;1.00;;;;;;5005152;28;20451;-84
2022/10/08 03:27:43;;;;;;;13.80;9.77;;;10.80;1.00;;;;;;5000496;28;20435;-85
2022/10/08 03:30:15;;;;;;;15.30;10.00;;;10.80;1.00;;;;;;5004339;28;20478;-83
2022/10/08 03:32:43;;;;;;;15.60;10.60;;;10.90;1.00;;;;;;5002727;28;20478;-83
2022/10/08 03:35:13;;;;;;;13.10;9.80;;;10.90;1.00;;;;;;4999113;28;20521;-82
2022/10/08 03:37:43;;;;;;;18.97;11.90;;;11.00;1.00;;;;;;5001295;28;20426;-84
2022/10/08 03:40:13;;;;;;;14.03;9.50;;;11.00;1.00;;;;;;4982606;28;20521;-83
2022/10/08 03:42:43;;;;;;;15.30;10.93;;;11.00;1.00;;;;;;4999452;28;20510;-83
2022/10/08 03:45:14;;;;;;;14.57;10.47;;;11.00;1.00;;;;;;5009347;28;20466;-82
2022/10/08 03:47:40;;;;;;;14.80;10.00;;;11.00;1.00;;;;;;5007192;28;21314;-85
2022/10/08 03:50:08;;;;;;;14.93;9.33;;;11.00;1.00;;;;;;4994257;28;20546;-84
2022/10/08 03:52:35;;;;;;;13.77;9.70;;;11.10;1.00;;;;;;4992756;28;20458;-82
2022/10/08 03:55:02;;;;;;;14.80;10.97;;;11.10;1.00;;;;;;4989189;28;20447;-84
2022/10/08 03:57:29;;;;;;;13.50;10.00;;;11.10;1.00;;;;;;4990526;28;20462;-83
2022/10/08 03:59:55;;;;;;;12.27;9.63;;;11.10;1.00;;;;;;4995837;28;20451;-84
2022/10/08 04:02:23;;;;;;;14.83;9.53;;;11.20;1.00;;;;;;4992351;28;20546;-83
2022/10/08 04:04:50;;;;;;;13.33;10.27;;;11.20;1.00;;;;;;4986726;28;20465;-81
2022/10/08 04:07:17;;;;;;;16.60;11.00;;;11.20;1.00;;;;;;4994076;28;20455;-83
2022/10/08 04:09:44;;;;;;;12.13;9.03;;;11.30;1.00;;;;;;4994445;28;20478;-84
2022/10/08 04:12:12;;;;;;;14.90;10.30;;;11.30;1.00;;;;;;4995475;28;20414;-83
2022/10/08 04:14:39;;;;;;;14.53;9.43;;;11.30;1.00;;;;;;4993251;28;20476;-84
2022/10/08 04:17:07;;;;;;;15.70;10.13;;;11.30;1.00;;;;;;4990113;28;20849;-84
2022/10/08 04:19:35;;;;;;;11.90;9.57;;;11.30;1.00;;;;;;4987631;28;20469;-85
2022/10/08 04:22:02;;;;;;;13.67;10.17;;;11.30;1.00;;;;;;4984998;28;23000;-84
2022/10/08 04:24:30;;;;;;;12.60;9.93;;;11.30;1.00;;;;;;4993635;28;20539;-83
2022/10/08 04:26:57;;;;;;;14.83;9.40;;;11.30;1.00;;;;;;4994596;28;20462;-84
2022/10/08 04:29:23;;;;;;;13.20;10.00;;;11.30;1.00;;;;;;4993837;28;20464;-82
2022/10/08 04:31:50;;;;;;;14.70;10.57;;;11.20;1.00;;;;;;4990645;28;20454;-84
2022/10/08 04:34:17;;;;;;;15.23;10.13;;;11.20;1.00;;;;;;4991594;28;20471;-85
2022/10/08 04:36:45;;;;;;;13.80;10.47;;;11.20;1.00;;;;;;4992600;28;20452;-83
2022/10/08 04:39:12;;;;;;;14.77;10.63;;;11.20;1.00;;;;;;4992494;28;20491;-84
2022/10/08 04:41:39;;;;;;;14.23;10.47;;;11.20;1.00;;;;;;4993088;28;20461;-83
2022/10/08 04:44:06;;;;;;;15.07;9.53;;;11.10;1.00;;;;;;4993484;28;20470;-82
2022/10/08 04:46:32;;;;;;;12.83;9.77;;;11.10;1.00;;;;;;4993930;28;20451;-83
2022/10/08 04:49:00;;;;;;;13.53;10.10;;;11.10;1.00;;;;;;4994174;28;20467;-84
2022/10/08 04:51:28;;;;;;;14.60;10.70;;;11.10;1.00;;;;;;4998363;28;20483;-85
2022/10/08 04:53:57;;;;;;;13.37;9.47;;;11.00;1.00;;;;;;4994832;28;20913;-84
2022/10/08 04:56:27;;;;;;;16.67;11.03;;;11.00;1.00;;;;;;4995710;28;21321;-84
2022/10/08 04:58:57;;;;;;;12.80;9.67;;;10.90;1.00;;;;;;4998217;28;20469;-83
2022/10/08 05:01:26;;;;;;;14.60;10.10;;;10.80;1.00;;;;;;4993477;28;20423;-82
2022/10/08 05:03:55;;;;;;;13.87;9.53;;;10.70;1.00;;;;;;4991064;28;20665;-83
2022/10/08 05:06:24;;;;;;;17.27;10.70;;;10.70;1.00;;;;;;4988710;28;20455;-84
2022/10/08 05:08:52;;;;;;;15.50;10.60;;;10.70;1.00;;;;;;4989207;28;20454;-85
2022/10/08 05:11:23;;;;;;;14.63;10.80;;;10.60;1.00;;;;;;4988950;28;20479;-85
2022/10/08 05:13:51;;;;;;;16.00;10.30;;;10.50;1.00;;;;;;4988713;28;20449;-84
2022/10/08 05:16:19;;;;;;;13.53;10.47;;;10.50;1.00;;;;;;4991173;28;20457;-84
2022/10/08 05:18:49;;;;;;;13.80;11.50;;;10.50;1.00;;;;;;4987599;28;20517;-83
2022/10/08 05:21:18;;;;;;;14.53;10.87;;;10.50;1.00;;;;;;4992546;28;20552;-84
2022/10/08 05:23:45;;;;;;;13.37;10.30;;;10.40;1.00;;;;;;4992721;28;20446;-83
2022/10/08 05:26:17;;;;;;;207.60;139.00;;;10.40;1.00;;;;;;4993582;28;20550;-84
2022/10/08 05:28:46;;;;;;;47.70;31.73;;;10.30;1.00;;;;;;4989548;28;20480;-83
2022/10/08 05:31:14;;;;;;;18.20;12.07;;;10.30;1.00;;;;;;4982297;28;20464;-82
2022/10/08 05:33:42;;;;;;;17.83;13.03;;;10.20;1.00;;;;;;4990895;28;20561;-85
2022/10/08 05:36:15;;;;;;;15.90;12.03;;;10.20;1.00;;;;;;4987561;28;20901;-83
2022/10/08 05:38:42;;;;;;;18.73;12.27;;;10.20;1.00;;;;;;4986462;28;20479;-83
2022/10/08 05:41:10;;;;;;;26.00;20.17;;;10.30;1.00;;;;;;4991010;28;20458;-83
2022/10/08 05:43:37;;;;;;;19.83;13.00;;;10.30;1.00;;;;;;4981800;28;20509;-82
2022/10/08 05:46:05;;;;;;;18.83;12.90;;;10.30;1.00;;;;;;4990406;28;20455;-84
2022/10/08 05:48:33;;;;;;;22.00;14.17;;;10.30;1.00;;;;;;4996590;28;20421;-84
2022/10/08 05:51:05;;;;;;;16.23;12.03;;;10.30;1.00;;;;;;5005303;28;21365;-79
2022/10/08 05:53:36;;;;;;;22.83;15.33;;;10.40;1.00;;;;;;5002011;28;20470;-82
2022/10/08 05:56:03;;;;;;;21.67;16.37;;;10.40;1.00;;;;;;4996393;28;20915;-80
2022/10/08 05:58:30;;;;;;;19.43;14.43;;;10.40;1.00;;;;;;4987269;28;20478;-80
2022/10/08 06:00:58;;;;;;;18.80;15.20;;;10.40;1.00;;;;;;4987202;28;20471;-82
2022/10/08 06:03:28;;;;;;;21.00;15.50;;;10.40;1.00;;;;;;4988695;28;20443;-79
2022/10/08 06:05:55;;;;;;;23.40;15.30;;;10.30;1.00;;;;;;4986118;28;20423;-80
2022/10/08 06:08:22;;;;;;;19.50;16.10;;;10.30;1.00;;;;;;4988624;28;20470;-83
2022/10/08 06:10:50;;;;;;;21.43;14.63;;;10.40;1.00;;;;;;4985718;28;20462;-86
2022/10/08 06:13:17;;;;;;;21.87;16.20;;;10.40;1.00;;;;;;4989631;28;20500;-83
2022/10/08 06:15:43;;;;;;;25.40;15.60;;;10.30;1.00;;;;;;4989484;28;20566;-81
2022/10/08 06:18:10;;;;;;;20.10;15.73;;;10.30;1.00;;;;;;4988346;28;20497;-81
2022/10/08 06:20:38;;;;;;;22.10;15.93;;;10.30;1.00;;;;;;4989337;28;21095;-80
2022/10/08 06:23:05;;;;;;;18.57;15.50;;;10.20;1.00;;;;;;4988065;28;20471;-83
2022/10/08 06:25:36;;;;;;;19.30;14.07;;;10.10;1.00;;;;;;4984617;28;21085;-84
2022/10/08 06:28:03;;;;;;;18.60;14.47;;;10.10;1.00;;;;;;4991294;28;20544;-80
2022/10/08 06:30:30;;;;;;;20.40;16.30;;;10.10;1.00;;;;;;4990866;28;20474;-80
2022/10/08 06:32:57;;;;;;;21.70;18.40;;;10.20;1.00;;;;;;4987048;28;20570;-80
2022/10/08 06:35:24;;;;;;;24.40;15.90;;;10.10;1.00;;;;;;4991553;28;20471;-80
2022/10/08 06:37:53;;;;;;;24.37;17.10;;;10.10;1.00;;;;;;4992547;28;20532;-82
2022/10/08 06:40:20;;;;;;;26.17;16.80;;;10.10;1.00;;;;;;4991580;28;20442;-80
2022/10/08 06:42:49;;;;;;;24.53;16.60;;;10.20;1.00;;;;;;4993043;28;20919;-81
2022/10/08 06:45:16;;;;;;;29.60;19.80;;;10.20;1.00;;;;;;4993671;28;20455;-80
2022/10/08 06:47:43;;;;;;;21.83;14.43;;;10.20;1.00;;;;;;4991956;28;20473;-79
2022/10/08 06:50:10;;;;;;;25.20;17.07;;;10.30;1.00;;;;;;4992198;28;20549;-80
2022/10/08 06:52:37;;;;;;;24.10;16.30;;;10.40;1.00;;;;;;4988988;28;20435;-82
2022/10/08 06:55:05;;;;;;;22.23;18.20;;;10.40;1.00;;;;;;4990215;28;20430;-81
2022/10/08 06:57:33;;;;;;;23.93;16.23;;;10.40;1.00;;;;;;4991826;28;20472;-81
2022/10/08 07:00:00;;;;;;;23.83;16.07;;;10.40;1.00;;;;;;4990530;28;20428;-80
2022/10/08 07:02:27;;;;;;;22.10;17.93;;;10.40;1.00;;;;;;4985890;28;20485;-79
2022/10/08 07:04:54;;;;;;;24.07;16.13;;;10.50;1.00;;;;;;4988996;28;20483;-81
2022/10/08 07:07:20;;;;;;;18.40;15.47;;;10.60;1.00;;;;;;4991895;28;20498;-81
2022/10/08 07:09:47;;;;;;;21.50;15.43;;;10.80;1.00;;;;;;4994968;28;20465;-82
2022/10/08 07:12:15;;;;;;;16.13;13.60;;;11.00;1.00;;;;;;4995498;28;20470;-81
2022/10/08 07:14:44;;;;;;;16.67;12.77;;;11.10;1.00;;;;;;4990152;28;20466;-80
2022/10/08 07:17:11;;;;;;;16.10;12.27;;;11.20;1.00;;;;;;4995582;28;20444;-80
2022/10/08 07:19:38;;;;;;;17.77;12.40;;;11.30;1.00;;;;;;4993926;28;20471;-81
2022/10/08 07:22:07;;;;;;;16.70;13.00;;;11.40;1.00;;;;;;4995743;28;20939;-79
2022/10/08 07:24:36;;;;;;;16.50;12.50;;;11.40;1.00;;;;;;4991809;28;20548;-81
2022/10/08 07:27:03;;;;;;;18.20;13.60;;;11.40;1.00;;;;;;4992838;28;20546;-82
2022/10/08 07:29:31;;;;;;;17.10;14.03;;;11.50;1.00;;;;;;4996706;28;21561;-81
2022/10/08 07:31:58;;;;;;;18.30;12.80;;;11.50;1.00;;;;;;4996486;28;20847;-79
2022/10/08 07:34:25;;;;;;;16.40;12.10;;;11.50;1.00;;;;;;4994169;28;21269;-80
2022/10/08 07:36:52;;;;;;;19.23;13.43;;;11.70;1.00;;;;;;4993267;28;20443;-80
2022/10/08 07:39:20;;;;;;;13.23;10.97;;;11.90;1.00;;;;;;4998154;28;20462;-79
2022/10/08 07:41:48;;;;;;;17.97;12.00;;;12.00;1.00;;;;;;4962047;28;20887;-79
2022/10/08 07:44:15;;;;;;;14.00;9.77;;;12.20;1.00;;;;;;4990803;28;20459;-79
2022/10/08 07:46:47;;;;;;;15.07;10.47;;;12.40;1.00;;;;;;4994471;28;20435;-81
2022/10/08 07:49:16;;;;;;;13.43;10.00;;;12.60;1.00;;;;;;5007600;28;20458;-80
2022/10/08 07:51:45;;;;;;;12.97;9.47;;;12.80;1.00;;;;;;5005210;28;20499;-81
2022/10/08 07:54:15;;;;;;;14.33;7.50;;;12.90;1.00;;;;;;5000908;28;20443;-80
2022/10/08 07:56:54;;;;;;;13.33;8.30;;;13.10;1.00;;;;;;4999110;28;20486;-80
2022/10/08 07:59:27;;;;;;;12.30;8.27;;;13.40;1.00;;;;;;5001456;28;20482;-78
2022/10/08 08:01:56;;;;;;;10.43;7.00;;;13.50;1.00;;;;;;4997506;28;20447;-80
2022/10/08 08:04:25;;;;;;;15.27;8.13;;;13.60;1.00;;;;;;4999763;28;20441;-80
2022/10/08 08:06:55;;;;;;;11.30;6.83;;;13.70;1.00;;;;;;4998100;28;20509;-80
2022/10/08 08:09:25;;;;;;;13.93;7.33;;;13.80;1.00;;;;;;4995409;28;20418;-81
2022/10/08 08:11:54;;;;;;;12.00;6.13;;;13.80;1.00;;;;;;4997206;28;20415;-79
2022/10/08 08:14:24;;;;;;;16.03;7.40;;;13.90;1.00;;;;;;5000088;28;20491;-80
2022/10/08 08:16:56;;;;;;;9.90;5.73;;;14.00;1.00;;;;;;5000831;28;20419;-81
2022/10/08 08:19:26;;;;;;;9.20;5.37;;;14.10;1.00;;;;;;4997641;28;20479;-80
2022/10/08 08:22:04;;;;;;;8.83;5.10;;;14.40;1.00;;;;;;4993567;28;20451;-81
2022/10/08 08:24:54;;;;;;;9.30;5.10;;;14.50;1.00;;;;;;4995818;28;20454;-81
2022/10/08 08:27:25;;;;;;;12.30;5.53;;;14.70;1.00;;;;;;5000204;28;20430;-82
2022/10/08 08:29:59;;;;;;;9.10;5.40;;;15.00;1.00;;;;;;4990981;28;20425;-81
2022/10/08 08:32:35;;;;;;;10.67;4.67;;;15.60;1.00;;;;;;4997037;28;20470;-78
2022/10/08 08:35:05;;;;;;;12.63;6.50;;;16.70;1.00;;;;;;4998969;28;20532;-80
2022/10/08 08:37:34;;;;;;;9.70;5.60;;;17.10;1.00;;;;;;4999480;28;20428;-80
2022/10/08 08:40:01;;;;;;;10.17;4.87;;;17.10;1.00;;;;;;4993211;28;20462;-77
2022/10/08 08:42:47;;;;;;;8.43;4.30;;;17.00;1.00;;;;;;4988495;28;20519;-79
2022/10/08 08:45:25;;;;;;;9.70;4.13;;;16.90;1.00;;;;;;4987917;28;20781;-81
2022/10/08 08:48:04;;;;;;;9.47;4.30;;;17.50;1.00;;;;;;4984967;28;20458;-79
2022/10/08 08:50:35;;;;;;;11.17;4.60;;;19.10;1.00;;;;;;4986131;28;20468;-76
2022/10/08 08:53:05;;;;;;;9.80;3.80;;;20.60;1.00;;;;;;4991346;28;20477;-80
2022/10/08 08:55:37;;;;;;;7.30;4.43;;;21.60;1.00;;;;;;4990335;28;20447;-80
2022/10/08 08:58:14;;;;;;;8.27;3.53;;;22.30;1.00;;;;;;4999905;28;20458;-79
2022/10/08 09:00:54;;;;;;;5.40;3.60;;;23.10;1.00;;;;;;4994643;28;20434;-81
2022/10/08 09:03:34;;;;;;;12.83;5.37;;;23.60;1.00;;;;;;5003867;28;20426;-79
2022/10/08 09:06:13;;;;;;;7.77;3.63;;;23.60;1.00;;;;;;4998197;28;20431;-81
2022/10/08 09:08:52;;;;;;;6.13;3.47;;;24.30;1.00;;;;;;4999702;28;20427;-81
2022/10/08 09:11:24;;;;;;;7.23;3.40;;;24.90;1.00;;;;;;4999178;28;20514;-77
2022/10/08 09:14:04;;;;;;;5.87;3.50;;;25.50;1.00;;;;;;5002604;28;20470;-79
2022/10/08 09:16:37;;;;;;;5.70;3.60;;;25.50;1.00;;;;;;4997395;28;20435;-82
2022/10/08 09:19:17;;;;;;;8.93;3.70;;;24.90;1.00;;;;;;5003334;28;20517;-81
2022/10/08 09:21:44;;;;;;;7.30;3.67;;;24.90;1.00;;;;;;5001616;28;20459;-82
2022/10/08 09:24:16;;;;;;;6.97;3.70;;;25.10;1.00;;;;;;5005225;28;20439;-82
2022/10/08 09:26:44;;;;;;;7.97;4.20;;;24.80;1.00;;;;;;5003765;28;20428;-85
2022/10/08 09:29:43;;;;;;;7.80;3.70;;;24.20;1.00;;;;;;4999031;28;20428;-82
2022/10/08 09:32:17;;;;;;;7.60;3.57;;;23.50;1.00;;;;;;5006262;28;20431;-85
2022/10/08 09:34:47;;;;;;;6.13;3.60;;;23.00;1.00;;;;;;5005352;28;20446;-82
2022/10/08 09:37:36;;;;;;;9.27;3.80;;;22.80;1.00;;;;;;5009785;28;20436;-87
2022/10/08 09:40:17;;;;;;;9.13;4.40;;;22.50;1.00;;;;;;5008287;28;20515;-84
2022/10/08 09:43:26;;;;;;;10.00;3.77;;;21.80;1.00;;;;;;5003348;28;20470;-88
2022/10/08 09:46:10;;;;;;;5.63;3.40;;;21.20;1.00;;;;;;4970604;28;20507;-82
2022/10/08 09:48:44;;;;;;;7.53;4.60;;;20.70;1.00;;;;;;4998680;28;20506;-81
2022/10/08 09:51:44;;;;;;;7.10;5.13;;;20.20;1.00;;;;;;5003769;28;20473;-86
2022/10/08 09:54:25;;;;;;;8.20;4.90;;;19.60;1.00;;;;;;4992299;28;20436;-88
2022/10/08 09:57:16;;;;;;;5.87;4.60;;;19.30;1.00;;;;;;4998825;28;20423;-87
2022/10/08 10:00:05;;;;;;;13.10;5.20;;;19.40;1.00;;;;;;5001203;28;21117;-88
2022/10/08 10:02:47;;;;;;;7.60;4.30;;;19.40;1.00;;;;;;5003136;28;20411;-87
2022/10/08 10:05:26;;;;;;;9.63;4.57;;;19.30;1.00;;;;;;5004149;28;20521;-85
2022/10/08 10:08:55;;;;;;;8.83;4.47;;;19.10;1.00;;;;;;5003520;28;20481;-86
2022/10/08 10:11:35;;;;;;;9.17;5.37;;;18.80;1.00;;;;;;5002250;28;20533;-85
2022/10/08 10:14:33;;;;;;;10.53;4.10;;;18.50;1.00;;;;;;4991138;28;20428;-85
2022/10/08 10:20:06;;;;;;;8.33;4.57;;;18.30;1.00;;;;;;5002621;28;20669;-85
2022/10/08 10:26:26;;;;;;;11.90;4.73;;;18.80;1.00;;;;;;4956087;28;20509;-85
2022/10/08 10:29:16;;;;;;;7.60;4.70;;;19.50;1.00;;;;;;4939369;28;20430;-80
2022/10/08 10:32:05;;;;;;;8.40;4.27;;;19.70;1.00;;;;;;4932500;28;20497;-80
2022/10/08 10:34:46;;;;;;;9.33;3.80;;;19.30;1.00;;;;;;4944119;29;20445;-81
2022/10/08 10:37:27;;;;;;;8.80;4.70;;;18.60;1.00;;;;;;4977925;28;20451;-77
2022/10/08 10:40:05;;;;;;;8.23;3.93;;;18.00;1.00;;;;;;5009324;28;21308;-83
2022/10/08 10:42:45;;;;;;;7.63;4.30;;;17.90;1.00;;;;;;5000098;28;20450;-81
2022/10/08 10:46:04;;;;;;;10.97;4.30;;;17.70;1.00;;;;;;5003012;28;20418;-84
2022/10/08 10:48:46;;;;;;;8.60;4.73;;;17.50;1.00;;;;;;5004247;28;20525;-78
2022/10/08 10:51:40;;;;;;;10.07;4.53;;;17.50;1.00;;;;;;4998121;28;20486;-82
2022/10/08 10:54:28;;;;;;;7.67;4.40;;;17.50;1.00;;;;;;5002340;28;20478;-85
2022/10/08 10:57:05;;;;;;;7.20;4.30;;;17.40;1.00;;;;;;4993711;28;20415;-84
2022/10/08 10:59:48;;;;;;;7.13;4.23;;;17.10;1.00;;;;;;5005376;28;20490;-84
2022/10/08 11:02:44;;;;;;;7.93;4.37;;;17.00;1.00;;;;;;5008772;28;20470;-84
2022/10/08 11:05:26;;;;;;;12.33;5.30;;;17.10;1.00;;;;;;5010722;28;20483;-84
2022/10/08 11:08:29;;;;;;;10.40;5.83;;;17.20;1.00;;;;;;5002933;28;20516;-83
2022/10/08 11:11:22;;;;;;;7.70;4.37;;;17.10;1.00;;;;;;4955913;28;20537;-83
2022/10/08 11:14:16;;;;;;;9.13;4.47;;;16.90;1.00;;;;;;5003614;28;20438;-84
2022/10/08 11:17:04;;;;;;;8.00;4.20;;;16.90;1.00;;;;;;5005368;28;20441;-85
2022/10/08 11:20:06;;;;;;;9.20;4.30;;;17.00;1.00;;;;;;4995254;28;20448;-85
2022/10/08 11:22:44;;;;;;;8.47;4.90;;;16.90;1.00;;;;;;5005430;28;21171;-81
2022/10/08 11:25:34;;;;;;;10.60;4.90;;;16.80;1.00;;;;;;4992706;28;21023;-83
2022/10/08 11:28:35;;;;;;;7.07;4.90;;;16.70;1.00;;;;;;5005573;28;20446;-85
2022/10/08 11:31:17;;;;;;;10.70;4.50;;;16.60;1.00;;;;;;5003700;28;20436;-84
2022/10/08 11:33:46;;;;;;;10.43;4.93;;;16.50;1.00;;;;;;5006591;28;20473;-82
2022/10/08 11:36:37;;;;;;;10.33;5.43;;;16.30;1.00;;;;;;5004720;28;20518;-82
2022/10/08 11:39:25;;;;;;;10.20;5.73;;;16.20;1.00;;;;;;5005865;28;20478;-84
2022/10/08 11:42:15;;;;;;;10.83;5.60;;;16.00;1.00;;;;;;5007015;28;20439;-82
2022/10/08 11:44:43;;;;;;;11.20;6.70;;;15.80;1.00;;;;;;5000932;28;20491;-86
2022/10/08 11:47:53;;;;;;;9.67;5.87;;;15.50;1.00;;;;;;4999506;28;20454;-83
2022/10/08 11:50:28;;;;;;;11.27;6.40;;;15.20;1.00;;;;;;5003237;28;20479;-83
2022/10/08 11:53:08;;;;;;;13.37;7.60;;;15.00;1.00;;;;;;4998484;28;20442;-83
2022/10/08 11:55:40;;;;;;;15.00;8.70;;;14.90;1.00;;;;;;5004797;28;20518;-83
2022/10/08 11:58:25;;;;;;;10.73;7.90;;;14.70;1.00;;;;;;5010386;28;20535;-85
2022/10/08 12:01:14;;;;;;;14.03;8.20;;;14.60;1.00;;;;;;4999986;28;20431;-86
2022/10/08 12:04:05;;;;;;;12.23;7.83;;;14.50;1.00;;;;;;5002989;28;20498;-84
2022/10/08 12:06:36;;;;;;;18.00;9.30;;;14.50;1.00;;;;;;5006556;28;21234;-82
2022/10/08 12:09:06;;;;;;;11.53;8.07;;;14.50;1.00;;;;;;5003367;28;20419;-81
2022/10/08 12:11:55;;;;;;;11.37;8.70;;;14.50;1.00;;;;;;5002578;28;20434;-84
2022/10/08 12:14:47;;;;;;;15.67;8.63;;;14.60;1.00;;;;;;5002702;28;20497;-83
2022/10/08 12:17:17;;;;;;;15.43;9.40;;;14.70;1.00;;;;;;5004672;28;20436;-82
2022/10/08 12:20:17;;;;;;;14.10;10.47;;;14.80;1.00;;;;;;5004262;28;20446;-84
2022/10/08 12:26:15;;;;;;;11.67;8.70;;;15.40;1.00;;;;;;4986115;28;21283;-82
2022/10/08 12:29:06;;;;;;;15.30;8.37;;;15.60;1.00;;;;;;5002344;28;20483;-83
2022/10/08 12:31:46;;;;;;;13.03;8.80;;;15.70;1.00;;;;;;4998281;28;20451;-83
2022/10/08 12:34:26;;;;;;;15.27;8.50;;;15.80;1.00;;;;;;5003914;28;20477;-82
2022/10/08 12:37:05;;;;;;;11.50;8.00;;;16.00;1.00;;;;;;5003649;28;20435;-83
2022/10/08 12:39:47;;;;;;;16.20;9.17;;;16.20;1.00;;;;;;4992452;28;20415;-85
2022/10/08 12:42:28;;;;;;;11.17;6.97;;;16.60;1.00;;;;;;5006333;28;20420;-84
2022/10/08 12:45:24;;;;;;;10.73;7.90;;;16.90;1.00;;;;;;5002949;28;20449;-82
2022/10/08 12:48:15;;;;;;;11.87;7.23;;;17.30;1.00;;;;;;5003783;28;20418;-85
2022/10/08 12:51:15;;;;;;;10.13;6.70;;;17.40;1.00;;;;;;4994445;28;20423;-86
2022/10/08 12:56:47;;;;;;;11.30;6.80;;;17.10;1.00;;;;;;4995371;28;20486;-86
2022/10/08 12:59:17;;;;;;;12.23;7.20;;;16.80;1.00;;;;;;4998967;28;20434;-85
2022/10/08 13:01:47;;;;;;;11.40;7.33;;;16.70;1.00;;;;;;5004667;28;20463;-86
2022/10/08 13:04:18;;;;;;;12.40;7.23;;;16.60;1.00;;;;;;5006213;28;20423;-85
2022/10/08 13:06:57;;;;;;;8.93;7.30;;;16.40;1.00;;;;;;5005414;28;20981;-83
2022/10/08 13:12:16;;;;;;;12.60;7.50;;;16.80;1.00;;;;;;4999136;28;20460;-85
2022/10/08 13:14:46;;;;;;;10.90;6.63;;;17.70;1.00;;;;;;5003146;28;21345;-83
2022/10/08 13:17:36;;;;;;;8.50;5.63;;;18.40;1.00;;;;;;4981188;28;20477;-84
2022/10/08 13:20:16;;;;;;;8.83;5.60;;;18.50;1.00;;;;;;5006347;28;20415;-85
2022/10/08 13:22:46;;;;;;;7.63;4.70;;;18.50;1.00;;;;;;5005342;28;20850;-86
2022/10/08 13:25:35;;;;;;;8.63;4.63;;;18.30;1.00;;;;;;4998003;28;20434;-86
2022/10/08 13:28:15;;;;;;;6.50;4.67;;;18.10;1.00;;;;;;4994829;28;20437;-85
2022/10/08 13:30:46;;;;;;;9.17;4.20;;;18.20;1.00;;;;;;4999416;28;21309;-85
2022/10/08 13:33:26;;;;;;;7.40;4.37;;;18.30;1.00;;;;;;5000388;28;20463;-85
2022/10/08 13:35:55;;;;;;;5.70;3.20;;;18.10;1.00;;;;;;5001931;28;20459;-83
2022/10/08 13:38:37;;;;;;;7.27;3.73;;;17.80;1.00;;;;;;4998255;28;20498;-85